To NAV CANADA Home Page Login to a new session Search on AWWS site Feedback and Comments Disclaimer Vers la page française équivalente Tips FAQ What's new on the site To the Forecasts and Observations / NOTAM section To "File a Flight Plan" website Publications and other links Update of the User's profile FIC Telephone Numbers My Weather Data Folder Route Weather Data Regional Weather Data Local Weather Data To the Forecasts and Observations / NOTAM section
Request Generated 12/04/2016 at 22:24:42 UTC . Weather information available at that time is displayed.

METAR/TAF

CHURCHILL/MB    (show WxCam)

METAR CYYQ 042200Z 17007KT 15SM OVC016 M10/M11 A2982 RMK SC8 SLP103=
SPECI CYYQ 042153Z 17008KT 15SM BKN016 OVC029 M10/M11 A2982 RMK
SC6SC2 SLP103=
METAR CYYQ 042100Z 16008KT 15SM -SN FEW005 BKN018 OVC022 M10/M11
A2982 RMK SF1SC4SC3 SLP103=
METAR CYYQ 042000Z 17008KT 15SM -SN BKN024 BKN070 M11/M11 A2983 RMK
SC5AC2 SLP107=

TAF CYYQ 041738Z 0418/0518 16008KT P6SM BKN040 BKN120 OVC240 TEMPO
0418/0424 BKN006 OVC040
FM050000 12006KT 2SM -SN BR OVC006 TEMPO 0500/0514 6SM -SN SCT006
OVC040 PROB30 0500/0514 1SM -SHSN
FM051400 34005KT 2SM -SN BR OVC006 TEMPO 0514/0518 P6SM -SN
SCT006 OVC040
RMK NXT FCST BY 050000Z=
Your time UTC time
Weather data provided by Environment Canada and NAV CANADA